Terminal Aerodrome Forecast
Issued by NWS

Home | Current Version | Previous Version | Text Only | Print | Product List | Glossary Off
Versions: 1 2 3 4 5 6 7 8 9 10 11 12 13 14 15 16 17

000
FTUS43 KPAH 290200 AAA
TAFCGI
TAF AMD
KCGI 290252Z 2903/2924 15008KT P6SM SCT300
     FM290600 19012G19KT P6SM SCT100
     FM291400 30013G22KT P6SM BKN020
     FM292100 32014G24KT P6SM OVC035=

USA.gov is the U.S. government's official web portal to all federal, state and local government web resources and services.